Time;durP1;ratioP1;P1;durP2;ratioP2;P2;SDS_P1;SDS_P2;PMS_P1;PMS_P2;Temp;Humidity;BMP_temperature;BMP_pressure;BME280_temperature;BME280_humidity;BME280_pressure;Samples;Min_cycle;Max_cycle;Signal;HPM_P1;HPM_P2
2023/09/09 00:02:14;;;;;;;11.00;8.25;;;14.80;99.90;;;;;;5043485;28;20531;-80
2023/09/09 00:04:40;;;;;;;12.38;9.75;;;14.80;99.90;;;;;;5030083;28;20131;-79
2023/09/09 00:07:06;;;;;;;11.35;8.90;;;14.80;99.90;;;;;;5033678;28;20030;-80
2023/09/09 00:09:32;;;;;;;13.13;9.45;;;14.80;99.90;;;;;;5030211;28;20120;-79
2023/09/09 00:11:58;;;;;;;11.65;8.77;;;14.70;99.90;;;;;;5030747;28;20044;-79
2023/09/09 00:14:25;;;;;;;12.48;9.20;;;14.70;99.90;;;;;;5030472;28;20029;-79
2023/09/09 00:16:51;;;;;;;15.05;9.27;;;14.70;99.90;;;;;;5032694;28;20108;-81
2023/09/09 00:19:21;;;;;;;13.35;9.77;;;14.70;99.90;;;;;;5027106;28;20030;-81
2023/09/09 00:21:47;;;;;;;10.95;8.80;;;14.60;99.90;;;;;;5030746;28;20280;-81
2023/09/09 00:24:13;;;;;;;12.95;9.95;;;14.60;99.90;;;;;;5043303;28;20124;-80
2023/09/09 00:26:39;;;;;;;11.45;9.32;;;14.60;99.90;;;;;;5032742;28;20064;-80
2023/09/09 00:29:04;;;;;;;12.20;10.13;;;14.60;99.90;;;;;;5032548;28;20037;-81
2023/09/09 00:31:30;;;;;;;13.18;9.70;;;14.60;99.90;;;;;;5031340;28;20116;-81
2023/09/09 00:33:56;;;;;;;12.07;9.20;;;14.50;99.90;;;;;;5031196;28;20037;-81
2023/09/09 00:36:22;;;;;;;12.63;9.45;;;14.50;99.90;;;;;;5033036;28;20018;-81
2023/09/09 00:38:47;;;;;;;15.15;9.65;;;14.50;99.90;;;;;;5038646;28;20552;-81
2023/09/09 00:41:15;;;;;;;12.30;9.80;;;14.50;99.90;;;;;;5031103;28;20033;-81
2023/09/09 00:43:43;;;;;;;11.02;9.65;;;14.40;99.90;;;;;;5045312;28;20033;-81
2023/09/09 00:46:09;;;;;;;13.20;9.55;;;14.40;99.90;;;;;;5043214;28;20061;-81
2023/09/09 00:48:36;;;;;;;11.90;9.95;;;14.40;99.90;;;;;;5041492;28;20038;-80
2023/09/09 00:51:03;;;;;;;12.25;9.38;;;14.30;99.90;;;;;;5033629;28;20030;-80
2023/09/09 00:53:30;;;;;;;13.43;9.82;;;14.30;99.90;;;;;;5032260;28;20025;-80
2023/09/09 00:55:56;;;;;;;11.15;9.40;;;14.30;99.90;;;;;;5036256;28;20025;-80
2023/09/09 00:58:23;;;;;;;12.13;9.18;;;14.30;99.90;;;;;;5019043;28;20095;-81
2023/09/09 01:00:49;;;;;;;13.18;10.25;;;14.20;99.90;;;;;;5026056;28;20033;-80
2023/09/09 01:03:14;;;;;;;13.55;9.60;;;14.20;99.90;;;;;;5025614;28;20048;-81
2023/09/09 01:05:40;;;;;;;11.77;9.80;;;14.20;99.90;;;;;;5034221;28;20037;-79
2023/09/09 01:08:06;;;;;;;12.35;9.73;;;14.20;99.90;;;;;;5033213;28;20047;-80
2023/09/09 01:10:32;;;;;;;12.52;10.18;;;14.20;99.90;;;;;;5035616;28;20029;-80
2023/09/09 01:12:58;;;;;;;12.38;9.55;;;14.10;99.90;;;;;;5035798;28;20037;-81
2023/09/09 01:15:24;;;;;;;14.52;9.95;;;14.10;99.90;;;;;;5038383;28;20030;-81
2023/09/09 01:17:52;;;;;;;16.23;10.10;;;14.10;99.90;;;;;;5033866;28;20604;-80
2023/09/09 01:20:19;;;;;;;14.02;9.63;;;14.00;99.90;;;;;;5033727;28;20095;-81
2023/09/09 01:22:49;;;;;;;12.00;9.93;;;14.00;99.90;;;;;;5034163;28;20041;-79
2023/09/09 01:25:16;;;;;;;12.40;9.20;;;14.00;99.90;;;;;;5031690;28;20033;-79
2023/09/09 01:27:42;;;;;;;11.95;9.15;;;14.00;99.90;;;;;;5029386;28;20224;-78
2023/09/09 01:30:11;;;;;;;12.98;9.85;;;14.00;99.90;;;;;;5029181;28;20037;-78
2023/09/09 01:32:36;;;;;;;11.45;9.75;;;13.90;99.90;;;;;;5028553;28;20451;-80
2023/09/09 01:35:04;;;;;;;11.30;9.48;;;13.90;99.90;;;;;;5042530;28;20116;-78
2023/09/09 01:37:31;;;;;;;13.02;9.05;;;13.90;99.90;;;;;;5028858;28;20048;-79
2023/09/09 01:39:57;;;;;;;12.63;9.20;;;13.90;99.90;;;;;;5029120;28;20018;-80
2023/09/09 01:42:23;;;;;;;11.68;8.88;;;13.80;99.90;;;;;;5027722;28;20033;-79
2023/09/09 01:44:49;;;;;;;11.82;9.10;;;13.80;99.90;;;;;;5043651;28;20025;-79
2023/09/09 01:47:15;;;;;;;12.35;9.18;;;13.80;99.90;;;;;;5027793;28;20728;-79
2023/09/09 01:49:42;;;;;;;13.05;8.68;;;13.70;99.90;;;;;;5035067;28;20179;-80
2023/09/09 01:52:08;;;;;;;10.77;8.38;;;13.70;99.90;;;;;;5044813;28;20033;-80
2023/09/09 01:54:52;;;;;;;10.85;8.63;;;13.70;99.90;;;;;;5026469;28;20060;-79
2023/09/09 01:57:19;;;;;;;12.02;8.98;;;13.70;99.90;;;;;;5040893;28;20139;-79
2023/09/09 01:59:45;;;;;;;10.30;8.43;;;13.60;99.90;;;;;;5036987;28;20045;-80
2023/09/09 02:02:15;;;;;;;13.98;10.13;;;13.60;99.90;;;;;;5044368;28;20045;-80
2023/09/09 02:04:42;;;;;;;12.95;9.27;;;13.60;99.90;;;;;;5028885;28;20092;-80
2023/09/09 02:07:08;;;;;;;10.82;9.15;;;13.60;99.90;;;;;;5036480;28;20041;-79
2023/09/09 02:09:34;;;;;;;12.45;9.10;;;13.60;99.90;;;;;;5043867;28;20511;-79
2023/09/09 02:12:03;;;;;;;11.93;9.48;;;13.50;99.90;;;;;;5028129;28;20041;-79
2023/09/09 02:14:32;;;;;;;12.27;9.25;;;13.50;99.90;;;;;;5032038;28;20032;-79
2023/09/09 02:16:58;;;;;;;13.10;9.45;;;13.40;99.90;;;;;;5036907;28;20025;-79
2023/09/09 02:19:24;;;;;;;14.27;9.48;;;13.40;99.90;;;;;;5033039;28;20120;-78
2023/09/09 02:21:50;;;;;;;12.88;9.25;;;13.40;99.90;;;;;;5025983;28;20111;-78
2023/09/09 02:24:16;;;;;;;9.85;8.60;;;13.40;99.90;;;;;;5041360;28;20037;-79
2023/09/09 02:26:42;;;;;;;12.35;9.02;;;13.40;99.90;;;;;;5047419;28;20400;-79
2023/09/09 02:29:08;;;;;;;12.52;9.30;;;13.40;99.90;;;;;;5032454;28;20064;-80
2023/09/09 02:31:33;;;;;;;11.02;8.90;;;13.30;99.90;;;;;;5031993;28;20061;-78
2023/09/09 02:33:59;;;;;;;10.25;8.38;;;13.30;99.90;;;;;;5035852;28;20045;-79
2023/09/09 02:36:25;;;;;;;11.30;8.57;;;13.30;99.90;;;;;;5038826;28;20030;-78
2023/09/09 02:38:51;;;;;;;12.20;9.13;;;13.20;99.90;;;;;;5034856;28;20072;-78
2023/09/09 02:41:17;;;;;;;12.98;9.38;;;13.20;99.90;;;;;;5035085;28;20661;-78
2023/09/09 02:43:43;;;;;;;15.32;11.00;;;13.20;99.90;;;;;;5029651;28;20413;-80
2023/09/09 02:46:09;;;;;;;11.88;8.93;;;13.20;99.90;;;;;;5035655;28;20400;-79
2023/09/09 02:48:35;;;;;;;12.63;9.55;;;13.10;99.90;;;;;;5048783;28;20029;-79
2023/09/09 02:51:00;;;;;;;12.40;8.88;;;13.10;99.90;;;;;;5032130;28;20029;-80
2023/09/09 02:53:26;;;;;;;9.93;8.73;;;13.10;99.90;;;;;;5030284;28;20085;-80
2023/09/09 02:55:52;;;;;;;12.05;8.90;;;13.10;99.90;;;;;;5037761;28;20025;-80
2023/09/09 02:58:19;;;;;;;13.00;10.60;;;13.10;99.90;;;;;;5036311;28;20021;-78
2023/09/09 03:00:45;;;;;;;12.35;8.93;;;13.10;99.90;;;;;;5017850;28;20253;-78
2023/09/09 03:03:11;;;;;;;11.73;9.07;;;13.00;99.90;;;;;;5036269;28;20036;-79
2023/09/09 03:05:37;;;;;;;12.93;8.40;;;13.00;99.90;;;;;;5033752;28;20038;-81
2023/09/09 03:08:04;;;;;;;12.05;8.80;;;13.00;99.90;;;;;;5034789;28;20095;-79
2023/09/09 03:10:31;;;;;;;12.02;9.35;;;13.00;99.90;;;;;;5025461;28;20033;-80
2023/09/09 03:12:57;;;;;;;11.98;9.23;;;13.00;99.90;;;;;;5033062;28;20029;-79
2023/09/09 03:15:23;;;;;;;10.75;8.40;;;12.90;99.90;;;;;;5036856;28;20029;-79
2023/09/09 03:17:49;;;;;;;13.55;8.52;;;12.90;99.90;;;;;;5026341;28;20032;-78
2023/09/09 03:20:16;;;;;;;11.38;9.13;;;12.90;99.90;;;;;;5027899;28;20477;-78
2023/09/09 03:22:42;;;;;;;11.93;8.63;;;12.90;99.90;;;;;;5033992;28;20036;-79
2023/09/09 03:25:08;;;;;;;11.68;8.88;;;12.90;99.90;;;;;;5035748;28;20099;-78
2023/09/09 03:27:34;;;;;;;11.63;9.27;;;12.90;99.90;;;;;;5033363;28;20072;-79
2023/09/09 03:30:01;;;;;;;13.73;9.02;;;12.90;99.90;;;;;;5053317;28;20157;-79
2023/09/09 03:32:29;;;;;;;11.88;9.15;;;12.80;99.90;;;;;;5032131;28;20026;-78
2023/09/09 03:34:55;;;;;;;15.88;9.38;;;12.80;99.90;;;;;;5036261;28;20030;-78
2023/09/09 03:37:22;;;;;;;13.05;9.05;;;12.80;99.90;;;;;;5035513;28;20104;-78
2023/09/09 03:39:48;;;;;;;14.77;9.23;;;12.80;99.90;;;;;;5040643;28;20485;-77
2023/09/09 03:42:14;;;;;;;10.88;8.65;;;12.70;99.90;;;;;;5036618;28;20079;-77
2023/09/09 03:44:41;;;;;;;13.15;8.90;;;12.70;99.90;;;;;;5033121;28;20515;-80
2023/09/09 03:47:07;;;;;;;11.38;8.95;;;12.70;99.90;;;;;;5032717;28;20071;-79
2023/09/09 03:49:33;;;;;;;11.48;8.90;;;12.70;99.90;;;;;;5037573;28;20392;-79
2023/09/09 03:51:59;;;;;;;13.65;9.32;;;12.70;99.90;;;;;;5035193;28;20034;-80
2023/09/09 03:54:25;;;;;;;12.57;9.77;;;12.70;99.90;;;;;;5024911;28;20036;-79
2023/09/09 03:56:51;;;;;;;11.07;8.85;;;12.70;99.90;;;;;;5051511;28;20465;-79
2023/09/09 03:59:17;;;;;;;11.88;9.40;;;12.60;99.90;;;;;;5038528;28;20032;-78
2023/09/09 04:01:43;;;;;;;14.25;9.18;;;12.60;99.90;;;;;;5032288;28;20520;-79
2023/09/09 04:04:09;;;;;;;23.40;9.20;;;12.60;99.90;;;;;;5031857;28;20115;-79
2023/09/09 04:06:35;;;;;;;10.88;8.57;;;12.60;99.90;;;;;;5032695;28;20056;-79
2023/09/09 04:09:01;;;;;;;10.95;8.82;;;12.50;99.90;;;;;;5034047;28;20033;-79
2023/09/09 04:11:26;;;;;;;10.80;8.70;;;12.50;99.90;;;;;;5030318;28;20033;-79
2023/09/09 04:13:52;;;;;;;9.57;8.55;;;12.50;99.90;;;;;;5028639;28;20049;-79
2023/09/09 04:16:19;;;;;;;12.25;9.10;;;12.50;99.90;;;;;;5040379;28;20036;-79
2023/09/09 04:18:44;;;;;;;11.10;8.70;;;12.50;99.90;;;;;;5046935;28;20033;-79
2023/09/09 04:21:10;;;;;;;11.55;8.93;;;12.50;99.90;;;;;;5052426;28;20041;-79
2023/09/09 04:23:36;;;;;;;11.75;8.52;;;12.50;99.90;;;;;;5040389;28;20017;-78
2023/09/09 04:26:03;;;;;;;10.98;8.48;;;12.40;99.90;;;;;;5034185;28;20034;-79
2023/09/09 04:28:29;;;;;;;11.75;8.02;;;12.40;99.90;;;;;;5029055;28;20246;-79
2023/09/09 04:30:54;;;;;;;12.02;9.00;;;12.40;99.90;;;;;;5030926;28;20389;-79
2023/09/09 04:33:21;;;;;;;11.93;8.50;;;12.40;99.90;;;;;;5038526;28;20034;-79
2023/09/09 04:35:47;;;;;;;10.98;8.68;;;12.40;99.90;;;;;;5028586;28;20026;-79
2023/09/09 04:38:13;;;;;;;10.30;8.27;;;12.40;99.90;;;;;;5033046;28;20084;-80
2023/09/09 04:40:40;;;;;;;11.57;8.93;;;12.40;99.90;;;;;;5030160;28;20025;-79
2023/09/09 04:43:07;;;;;;;11.10;8.63;;;12.30;99.90;;;;;;5033335;28;20056;-78
2023/09/09 04:45:35;;;;;;;11.55;8.55;;;12.30;99.90;;;;;;5030597;28;20036;-78
2023/09/09 04:48:01;;;;;;;9.75;8.10;;;12.30;99.90;;;;;;5035259;28;20104;-79
2023/09/09 04:50:27;;;;;;;10.95;8.60;;;12.30;99.90;;;;;;5028945;28;20596;-79
2023/09/09 04:52:54;;;;;;;12.50;8.52;;;12.30;99.90;;;;;;5044854;28;20033;-79
2023/09/09 04:55:19;;;;;;;10.35;8.25;;;12.30;99.90;;;;;;5032609;28;20551;-79
2023/09/09 04:57:45;;;;;;;10.80;7.40;;;12.30;99.90;;;;;;5036005;28;20087;-79
2023/09/09 05:00:12;;;;;;;9.63;8.07;;;12.30;99.90;;;;;;5034153;28;20026;-79
2023/09/09 05:02:39;;;;;;;9.40;7.88;;;12.30;99.90;;;;;;5027630;28;20037;-80
2023/09/09 05:05:06;;;;;;;10.07;7.30;;;12.30;99.90;;;;;;5054951;22;20131;-81
2023/09/09 05:07:35;;;;;;;8.75;7.28;;;12.30;99.90;;;;;;5027218;28;20032;-82
2023/09/09 05:10:06;;;;;;;11.30;7.63;;;12.30;99.90;;;;;;5013634;28;20129;-82
2023/09/09 05:12:35;;;;;;;9.38;8.20;;;12.30;99.90;;;;;;5009903;28;20029;-82
2023/09/09 05:15:02;;;;;;;8.98;7.25;;;12.30;99.90;;;;;;5007796;28;20375;-82
2023/09/09 05:17:28;;;;;;;9.55;7.88;;;12.30;99.90;;;;;;4991791;28;20034;-81
2023/09/09 05:19:54;;;;;;;9.48;7.88;;;12.30;99.90;;;;;;5005412;28;20026;-82
2023/09/09 05:22:20;;;;;;;9.18;7.72;;;12.30;99.90;;;;;;5016676;28;20112;-81
2023/09/09 05:24:46;;;;;;;9.43;7.53;;;12.40;99.90;;;;;;5005182;28;20034;-82
2023/09/09 05:27:12;;;;;;;8.30;6.95;;;12.40;99.90;;;;;;5012544;28;20053;-81
2023/09/09 05:29:38;;;;;;;10.88;7.60;;;12.30;99.90;;;;;;5008706;28;20113;-82
2023/09/09 05:32:05;;;;;;;10.73;8.23;;;12.30;99.90;;;;;;4993995;28;20041;-81
2023/09/09 05:34:31;;;;;;;9.95;7.65;;;12.40;99.90;;;;;;5035511;28;20030;-82
2023/09/09 05:36:56;;;;;;;8.05;6.55;;;12.40;99.90;;;;;;5009246;28;20028;-81
2023/09/09 05:39:22;;;;;;;8.77;7.30;;;12.50;99.90;;;;;;5019082;28;20027;-82
2023/09/09 05:41:48;;;;;;;9.52;7.75;;;12.50;99.90;;;;;;5023298;28;20125;-82
2023/09/09 05:44:14;;;;;;;11.85;7.90;;;12.60;99.90;;;;;;5007555;28;20584;-81
2023/09/09 05:46:40;;;;;;;9.18;7.07;;;12.70;99.90;;;;;;5011397;28;20355;-81
2023/09/09 05:49:06;;;;;;;9.45;8.25;;;12.80;99.90;;;;;;5016406;28;20125;-82
2023/09/09 05:51:32;;;;;;;9.57;7.68;;;13.00;99.90;;;;;;5010349;28;20126;-81
2023/09/09 05:54:00;;;;;;;10.35;8.07;;;13.20;99.90;;;;;;5019680;28;20629;-82
2023/09/09 05:56:27;;;;;;;11.48;8.35;;;13.40;99.90;;;;;;5010774;28;20683;-82
2023/09/09 05:58:53;;;;;;;11.00;8.10;;;13.70;99.90;;;;;;5004667;28;20341;-82
2023/09/09 06:01:19;;;;;;;11.25;8.02;;;14.00;99.90;;;;;;5008660;28;20378;-82
2023/09/09 06:03:46;;;;;;;13.10;9.50;;;14.20;99.90;;;;;;4993840;28;20042;-82
2023/09/09 06:06:12;;;;;;;9.23;6.85;;;14.40;99.90;;;;;;5013612;28;20029;-82
2023/09/09 06:08:38;;;;;;;9.23;7.53;;;14.70;99.90;;;;;;5014024;28;20053;-82
2023/09/09 06:11:04;;;;;;;10.73;7.43;;;14.90;99.90;;;;;;5009890;28;20045;-82
2023/09/09 06:13:32;;;;;;;9.00;7.20;;;15.20;99.90;;;;;;5007612;28;20034;-82
2023/09/09 06:15:58;;;;;;;8.95;7.47;;;15.40;99.90;;;;;;5019055;28;20032;-82
2023/09/09 06:18:24;;;;;;;9.93;8.38;;;15.70;99.90;;;;;;4992247;28;20030;-82
2023/09/09 06:20:52;;;;;;;9.90;7.53;;;15.90;99.90;;;;;;5012515;28;20041;-82
2023/09/09 06:23:18;;;;;;;9.77;7.78;;;16.20;99.90;;;;;;4990809;28;20064;-82
2023/09/09 06:25:45;;;;;;;9.80;7.32;;;16.30;99.90;;;;;;5007456;28;20132;-80
2023/09/09 06:28:11;;;;;;;10.60;8.25;;;16.50;99.90;;;;;;5007535;28;20030;-79
2023/09/09 06:30:44;;;;;;;8.20;7.28;;;16.80;99.90;;;;;;5007520;28;20030;-79
2023/09/09 06:33:10;;;;;;;10.18;7.72;;;17.00;99.90;;;;;;5007447;28;20056;-80
2023/09/09 06:35:37;;;;;;;8.48;6.43;;;17.20;99.90;;;;;;4991466;28;20033;-79
2023/09/09 06:38:04;;;;;;;8.70;6.70;;;17.30;99.90;;;;;;5016013;28;20436;-80
2023/09/09 06:40:33;;;;;;;8.55;6.97;;;17.60;99.90;;;;;;5009999;28;20026;-80
2023/09/09 06:42:59;;;;;;;8.32;7.07;;;17.80;99.90;;;;;;5007549;28;20124;-79
2023/09/09 06:45:25;;;;;;;8.02;7.07;;;18.00;99.90;;;;;;5016392;28;20281;-79
2023/09/09 06:47:51;;;;;;;9.60;6.80;;;18.20;99.90;;;;;;5007347;28;20041;-79
2023/09/09 06:50:17;;;;;;;9.90;6.95;;;18.30;99.90;;;;;;5007843;28;20036;-78
2023/09/09 06:52:43;;;;;;;10.45;7.13;;;18.50;99.90;;;;;;5013418;28;20026;-78
2023/09/09 06:55:08;;;;;;;8.65;6.63;;;18.70;99.90;;;;;;5017885;28;20374;-81
2023/09/09 06:57:35;;;;;;;10.45;7.07;;;18.80;99.90;;;;;;5009205;28;20026;-80
2023/09/09 07:00:00;;;;;;;9.02;6.80;;;18.90;99.90;;;;;;5016621;28;20083;-81
2023/09/09 07:02:26;;;;;;;8.25;6.85;;;19.10;99.90;;;;;;5010800;28;20038;-80
2023/09/09 07:04:53;;;;;;;8.25;7.43;;;19.10;99.90;;;;;;5021055;28;20037;-80
2023/09/09 07:07:19;;;;;;;8.68;6.85;;;19.30;99.90;;;;;;5004637;28;20044;-81
2023/09/09 07:09:45;;;;;;;8.80;6.43;;;19.40;99.90;;;;;;5014768;28;20120;-80
2023/09/09 07:12:11;;;;;;;10.75;7.18;;;19.50;99.90;;;;;;5011051;28;20026;-80
2023/09/09 07:14:36;;;;;;;7.47;6.00;;;19.70;99.90;;;;;;5016426;28;20597;-81
2023/09/09 07:17:03;;;;;;;8.65;7.30;;;19.80;99.90;;;;;;5012850;28;20026;-81
2023/09/09 07:19:29;;;;;;;9.15;7.00;;;19.90;99.90;;;;;;5011027;28;20505;-81
2023/09/09 07:21:55;;;;;;;11.02;6.72;;;20.00;99.90;;;;;;5019931;28;20503;-81
2023/09/09 07:24:20;;;;;;;9.00;6.90;;;20.00;99.90;;;;;;5012043;28;20030;-81
2023/09/09 07:26:46;;;;;;;9.13;6.80;;;20.10;99.90;;;;;;5017224;28;20729;-81
2023/09/09 07:29:12;;;;;;;9.35;6.68;;;20.20;99.90;;;;;;5013511;28;20482;-80
2023/09/09 07:31:38;;;;;;;7.90;7.10;;;20.30;99.90;;;;;;5014027;28;20058;-81
2023/09/09 07:34:03;;;;;;;8.50;7.60;;;20.40;99.90;;;;;;5013218;28;20030;-81
2023/09/09 07:36:29;;;;;;;7.88;7.07;;;20.30;99.90;;;;;;5010984;28;20076;-80
2023/09/09 07:38:55;;;;;;;9.60;8.43;;;20.40;99.90;;;;;;5023690;28;20027;-81
2023/09/09 07:41:21;;;;;;;13.30;8.07;;;20.30;99.90;;;;;;5013215;28;20030;-81
2023/09/09 07:43:48;;;;;;;9.63;7.40;;;20.40;99.90;;;;;;5016897;28;20138;-81
2023/09/09 07:46:14;;;;;;;10.20;8.02;;;20.50;99.90;;;;;;5009083;28;20026;-81
2023/09/09 07:48:41;;;;;;;9.02;7.70;;;20.50;99.90;;;;;;5011539;28;20556;-81
2023/09/09 07:51:07;;;;;;;8.90;6.90;;;20.50;99.90;;;;;;5013979;28;20025;-81
2023/09/09 07:53:33;;;;;;;8.95;7.78;;;20.60;99.90;;;;;;5014157;28;20069;-81
2023/09/09 07:56:17;;;;;;;8.80;7.03;;;20.80;99.90;;;;;;5012297;28;20069;-81
2023/09/09 07:58:43;;;;;;;11.18;6.50;;;21.00;99.90;;;;;;5011396;28;20077;-82
2023/09/09 08:01:11;;;;;;;11.25;6.97;;;21.20;99.90;;;;;;5011654;28;20029;-81
2023/09/09 08:03:37;;;;;;;8.20;6.65;;;21.30;99.90;;;;;;5012531;28;20096;-82
2023/09/09 08:06:06;;;;;;;8.07;6.30;;;21.40;99.90;;;;;;5016855;28;20038;-81
2023/09/09 08:08:35;;;;;;;10.90;7.05;;;21.60;99.90;;;;;;5012716;28;20038;-81
2023/09/09 08:11:05;;;;;;;7.40;6.57;;;21.40;99.90;;;;;;5015580;28;20029;-81
2023/09/09 08:13:30;;;;;;;7.70;6.85;;;21.50;99.90;;;;;;5009254;28;20026;-81
2023/09/09 08:16:00;;;;;;;8.05;6.47;;;21.70;99.90;;;;;;5013656;28;20409;-81
2023/09/09 08:18:26;;;;;;;9.98;7.43;;;21.70;99.90;;;;;;5012307;28;20073;-81
2023/09/09 08:20:52;;;;;;;9.13;7.32;;;21.70;99.90;;;;;;5015526;28;20057;-81
2023/09/09 08:23:18;;;;;;;7.82;6.68;;;21.80;99.90;;;;;;5021444;28;20461;-80
2023/09/09 08:25:45;;;;;;;8.93;6.68;;;22.00;99.90;;;;;;5012660;28;20414;-81
2023/09/09 08:28:11;;;;;;;9.02;6.85;;;22.10;99.90;;;;;;5011802;28;20029;-81
2023/09/09 08:30:37;;;;;;;7.68;6.88;;;22.10;99.90;;;;;;5014067;28;20485;-81
2023/09/09 08:33:03;;;;;;;10.23;6.85;;;22.20;99.90;;;;;;5010995;28;20030;-81
2023/09/09 08:35:32;;;;;;;7.18;6.18;;;22.30;99.90;;;;;;5007515;28;21327;-81
2023/09/09 08:38:00;;;;;;;6.68;5.95;;;22.40;99.90;;;;;;5014215;28;20083;-81
2023/09/09 08:40:26;;;;;;;7.70;6.57;;;22.50;99.90;;;;;;5012089;28;20022;-81
2023/09/09 08:43:27;;;;;;;7.53;6.30;;;22.40;99.90;;;;;;4996494;28;20034;-81
2023/09/09 08:46:13;;;;;;;7.18;6.30;;;22.50;99.90;;;;;;5013175;28;20061;-80
2023/09/09 08:48:42;;;;;;;9.35;6.25;;;22.40;99.90;;;;;;5012273;28;20042;-80
2023/09/09 08:51:20;;;;;;;6.78;6.07;;;22.30;99.90;;;;;;5016629;28;20108;-82
2023/09/09 08:53:49;;;;;;;9.07;6.80;;;22.40;99.90;;;;;;5022354;28;20045;-81
2023/09/09 08:56:17;;;;;;;9.23;7.07;;;22.50;99.90;;;;;;5010652;28;20029;-81
2023/09/09 08:58:43;;;;;;;8.90;6.97;;;22.60;99.90;;;;;;5014939;28;20045;-81
2023/09/09 09:01:12;;;;;;;7.15;6.10;;;22.60;99.90;;;;;;5014277;28;20073;-81
2023/09/09 09:03:38;;;;;;;9.25;6.35;;;22.60;99.90;;;;;;5008905;28;20044;-80
2023/09/09 09:06:15;;;;;;;7.35;6.30;;;22.70;99.90;;;;;;5016671;28;20157;-82
2023/09/09 09:08:42;;;;;;;7.85;6.20;;;22.70;99.90;;;;;;5016732;28;20410;-81
2023/09/09 09:11:11;;;;;;;7.80;6.63;;;22.80;99.90;;;;;;5009423;28;20038;-80
2023/09/09 09:13:37;;;;;;;13.82;7.47;;;22.90;99.90;;;;;;5007420;28;20034;-80
2023/09/09 09:16:03;;;;;;;8.30;6.68;;;22.90;99.90;;;;;;4997125;28;20083;-80
2023/09/09 09:18:29;;;;;;;9.50;6.32;;;22.90;99.90;;;;;;5016572;28;20035;-81
2023/09/09 09:21:09;;;;;;;8.55;6.78;;;23.00;99.90;;;;;;5016568;28;20120;-81
2023/09/09 09:23:45;;;;;;;8.30;6.38;;;23.00;99.90;;;;;;5005562;28;20034;-79
2023/09/09 09:26:27;;;;;;;6.53;5.88;;;23.10;99.90;;;;;;5017813;28;20088;-80
2023/09/09 09:28:53;;;;;;;7.03;6.25;;;23.10;99.90;;;;;;5013780;28;20461;-81
2023/09/09 09:31:23;;;;;;;7.82;6.20;;;23.20;99.90;;;;;;5012340;28;20100;-80
2023/09/09 09:33:57;;;;;;;6.82;6.13;;;23.20;99.90;;;;;;5010036;28;20076;-80
2023/09/09 09:36:24;;;;;;;6.70;5.72;;;23.30;99.90;;;;;;5012302;28;20462;-80
2023/09/09 09:38:50;;;;;;;7.00;5.93;;;23.20;99.90;;;;;;5010999;28;20079;-80
2023/09/09 09:41:21;;;;;;;8.27;5.95;;;23.30;99.20;;;;;;5015855;28;20037;-80
2023/09/09 09:43:49;;;;;;;8.00;6.00;;;23.30;99.90;;;;;;5010766;28;20062;-80
2023/09/09 09:46:16;;;;;;;7.57;5.45;;;23.30;99.60;;;;;;5011666;28;20033;-80
2023/09/09 09:48:42;;;;;;;8.82;6.07;;;23.40;99.90;;;;;;5009497;28;20478;-81
2023/09/09 09:51:08;;;;;;;6.85;5.60;;;23.50;99.90;;;;;;5009127;28;20033;-81
2023/09/09 09:53:49;;;;;;;8.20;6.13;;;23.50;98.70;;;;;;5007185;28;20044;-81
2023/09/09 09:56:15;;;;;;;6.80;5.82;;;23.60;98.70;;;;;;5004435;28;20018;-81
2023/09/09 09:58:47;;;;;;;6.35;5.63;;;23.60;97.90;;;;;;5023178;28;20030;-80
2023/09/09 10:01:14;;;;;;;7.10;6.03;;;23.70;98.00;;;;;;5008906;28;20430;-81
2023/09/09 10:03:46;;;;;;;7.57;5.90;;;23.70;96.60;;;;;;5013177;28;20486;-81
2023/09/09 10:06:16;;;;;;;6.30;5.57;;;23.70;97.90;;;;;;5016837;28;20026;-80
2023/09/09 10:08:48;;;;;;;8.07;6.03;;;23.80;99.20;;;;;;5002036;28;20405;-80
2023/09/09 10:11:17;;;;;;;7.15;5.72;;;24.00;98.10;;;;;;5006936;28;20490;-80
2023/09/09 10:13:53;;;;;;;8.07;5.70;;;24.10;96.70;;;;;;5009827;28;20034;-80
2023/09/09 10:16:21;;;;;;;6.40;5.80;;;24.20;98.50;;;;;;5003882;28;20022;-80
2023/09/09 10:18:49;;;;;;;7.95;6.28;;;24.20;97.30;;;;;;5011792;28;20034;-81
2023/09/09 10:21:17;;;;;;;6.75;5.03;;;24.20;96.00;;;;;;5007023;28;20437;-81
2023/09/09 10:23:45;;;;;;;13.25;5.97;;;24.10;97.00;;;;;;5008918;28;20118;-80
2023/09/09 10:26:11;;;;;;;6.45;5.57;;;24.20;96.10;;;;;;5015116;28;20170;-80
2023/09/09 10:28:38;;;;;;;8.23;5.60;;;24.20;95.50;;;;;;5011072;28;20037;-81
2023/09/09 10:31:05;;;;;;;6.43;5.35;;;24.20;95.80;;;;;;5013128;28;20444;-81
2023/09/09 10:33:31;;;;;;;10.38;5.78;;;24.30;96.70;;;;;;5010593;28;20064;-81
2023/09/09 10:35:58;;;;;;;6.93;5.28;;;24.40;97.50;;;;;;5021899;28;20026;-81
2023/09/09 10:38:26;;;;;;;7.03;6.00;;;24.50;94.10;;;;;;5014147;28;20045;-81
2023/09/09 10:40:52;;;;;;;5.78;5.18;;;24.50;95.20;;;;;;5016775;28;20552;-81
2023/09/09 10:43:18;;;;;;;8.10;5.50;;;24.60;94.70;;;;;;5013080;28;20084;-81
2023/09/09 10:45:45;;;;;;;6.95;5.57;;;24.60;94.80;;;;;;5021395;28;20473;-81
2023/09/09 10:48:11;;;;;;;8.07;5.40;;;24.70;94.30;;;;;;5013051;28;20489;-81
2023/09/09 10:50:51;;;;;;;6.80;6.10;;;24.70;94.50;;;;;;5017546;28;20500;-81
2023/09/09 10:53:18;;;;;;;8.10;5.78;;;24.70;94.40;;;;;;5011779;28;20607;-81
2023/09/09 10:55:46;;;;;;;6.95;5.60;;;24.70;95.40;;;;;;5013292;28;20022;-81
2023/09/09 10:58:16;;;;;;;6.70;5.82;;;24.70;93.50;;;;;;5019968;28;20113;-81
2023/09/09 11:00:45;;;;;;;5.63;5.10;;;24.80;93.50;;;;;;5019924;28;20120;-81
2023/09/09 11:03:27;;;;;;;6.32;5.40;;;24.80;94.60;;;;;;5013675;28;20085;-81
2023/09/09 11:06:04;;;;;;;6.80;6.03;;;24.90;91.90;;;;;;5011430;28;20037;-81
2023/09/09 11:08:35;;;;;;;8.70;6.07;;;25.00;93.60;;;;;;5039404;22;20128;-79
2023/09/09 11:11:31;;;;;;;6.72;5.38;;;25.00;91.70;;;;;;5034535;28;20036;-78
2023/09/09 11:13:57;;;;;;;6.28;5.45;;;25.10;91.80;;;;;;5010731;28;20102;-78
2023/09/09 11:16:27;;;;;;;7.45;5.15;;;25.20;91.10;;;;;;5036415;28;20114;-81
2023/09/09 11:18:55;;;;;;;5.90;5.13;;;25.20;91.80;;;;;;5038273;28;20025;-81
2023/09/09 11:21:24;;;;;;;5.85;4.80;;;25.30;91.60;;;;;;5036025;28;20377;-81
2023/09/09 11:23:51;;;;;;;6.63;5.40;;;25.40;91.00;;;;;;5029276;28;20037;-80
2023/09/09 11:26:17;;;;;;;7.30;5.68;;;25.40;89.80;;;;;;5045725;28;20117;-79
2023/09/09 11:28:48;;;;;;;7.28;5.75;;;25.40;91.10;;;;;;5032275;28;20021;-79
2023/09/09 11:31:15;;;;;;;5.93;5.28;;;25.40;89.80;;;;;;5033699;28;20036;-81
2023/09/09 11:33:41;;;;;;;6.38;4.95;;;25.30;88.80;;;;;;5037798;28;20047;-80
2023/09/09 11:36:07;;;;;;;5.63;5.10;;;25.40;90.70;;;;;;5034638;28;20467;-81
2023/09/09 11:38:34;;;;;;;7.75;5.10;;;25.50;90.10;;;;;;5034144;28;20075;-80
2023/09/09 11:41:00;;;;;;;6.93;5.55;;;25.60;89.60;;;;;;5036058;28;20026;-80
2023/09/09 11:43:26;;;;;;;6.43;5.15;;;25.70;89.40;;;;;;5033419;28;20044;-80
2023/09/09 11:45:53;;;;;;;7.93;5.03;;;25.70;89.10;;;;;;5033899;28;20033;-80
2023/09/09 11:48:20;;;;;;;7.07;5.43;;;25.80;86.00;;;;;;5035062;28;20033;-80
2023/09/09 11:50:46;;;;;;;6.78;5.32;;;25.80;85.00;;;;;;5035091;28;20071;-80
2023/09/09 11:53:12;;;;;;;8.80;5.57;;;25.70;85.40;;;;;;5036760;28;20056;-81
2023/09/09 11:55:38;;;;;;;7.65;5.78;;;25.70;84.20;;;;;;5032495;28;20034;-80
2023/09/09 11:58:05;;;;;;;5.80;5.20;;;25.80;88.90;;;;;;5036252;28;20125;-81
2023/09/09 12:00:31;;;;;;;5.35;4.65;;;25.90;88.00;;;;;;5031863;28;20232;-81
2023/09/09 12:02:56;;;;;;;9.43;5.63;;;26.00;85.50;;;;;;5030786;28;20086;-82
2023/09/09 12:05:31;;;;;;;7.15;5.32;;;26.10;88.50;;;;;;5032151;28;20097;-81
2023/09/09 12:08:15;;;;;;;10.20;5.72;;;26.20;85.30;;;;;;5028727;28;20476;-80
2023/09/09 12:10:42;;;;;;;8.10;5.10;;;26.30;84.60;;;;;;5033519;28;20033;-81
2023/09/09 12:13:08;;;;;;;8.30;5.63;;;26.30;81.60;;;;;;5034330;28;20038;-81
2023/09/09 12:15:34;;;;;;;7.95;5.47;;;26.30;82.90;;;;;;5030351;28;20026;-80
2023/09/09 12:18:00;;;;;;;9.93;5.55;;;26.30;79.70;;;;;;5034681;28;20118;-81
2023/09/09 12:20:26;;;;;;;6.50;5.18;;;26.20;77.90;;;;;;5029439;28;20021;-81
2023/09/09 12:22:52;;;;;;;6.47;5.07;;;26.10;79.40;;;;;;5033739;28;20525;-81
2023/09/09 12:25:35;;;;;;;5.93;5.07;;;26.20;78.20;;;;;;5029495;28;20037;-81
2023/09/09 12:28:02;;;;;;;6.25;4.65;;;26.20;80.60;;;;;;5034965;28;20374;-81
2023/09/09 12:30:41;;;;;;;7.72;4.88;;;26.30;80.40;;;;;;5025314;28;20025;-80
2023/09/09 12:33:09;;;;;;;7.00;5.50;;;26.40;78.40;;;;;;5038370;28;20504;-81
2023/09/09 12:35:36;;;;;;;7.13;5.65;;;26.60;80.40;;;;;;5030558;28;20017;-80
2023/09/09 12:38:03;;;;;;;7.20;5.40;;;26.60;81.80;;;;;;5033582;28;20120;-80
2023/09/09 12:41:02;;;;;;;6.88;4.95;;;26.70;81.80;;;;;;5032988;28;20047;-79
2023/09/09 12:43:28;;;;;;;5.95;4.93;;;26.90;82.60;;;;;;5023212;28;20034;-80
2023/09/09 12:46:02;;;;;;;7.82;5.30;;;26.90;80.90;;;;;;5034262;28;20035;-80